createdAt,value
2017-04-13T00:00:04.285Z,931.51
2017-04-13T00:00:18.415Z,931.51
2017-04-13T00:00:32.592Z,931.48
2017-04-13T00:00:46.773Z,931.56
2017-04-13T00:01:00.918Z,931.53
2017-04-13T00:01:27.926Z,931.52
2017-04-13T00:01:42.104Z,931.54
2017-04-13T00:01:56.216Z,931.49
2017-04-13T00:02:55.479Z,931.55
2017-04-13T00:03:09.652Z,931.48
2017-04-13T00:03:23.829Z,931.53
2017-04-13T00:03:37.977Z,931.54
2017-04-13T00:03:52.362Z,931.46
2017-04-13T00:04:06.596Z,931.49
2017-04-13T00:04:20.807Z,931.46
2017-04-13T00:04:34.978Z,931.47
2017-04-13T00:04:50.836Z,931.51
2017-04-13T00:05:05.042Z,931.47
2017-04-13T00:05:19.226Z,931.46
2017-04-13T00:05:33.399Z,931.52
2017-04-13T00:05:47.562Z,931.5
2017-04-13T00:06:01.711Z,931.48
2017-04-13T00:06:17.858Z,931.49
2017-04-13T00:06:32.005Z,931.45
2017-04-13T00:06:46.143Z,931.47
2017-04-13T00:07:00.552Z,931.5
2017-04-13T00:07:21.764Z,931.49
2017-04-13T00:07:35.881Z,931.51
2017-04-13T00:07:50.043Z,931.49
2017-04-13T00:08:04.431Z,931.5
2017-04-13T00:08:18.856Z,931.51
2017-04-13T00:08:38.279Z,931.52
2017-04-13T00:08:52.390Z,931.51
2017-04-13T00:09:06.612Z,931.46
2017-04-13T00:09:20.744Z,931.45
2017-04-13T00:09:35.098Z,931.47
2017-04-13T00:10:20.257Z,931.48
2017-04-13T00:10:34.408Z,931.47
2017-04-13T00:10:48.646Z,931.47
2017-04-13T00:11:36.805Z,931.53
2017-04-13T00:12:11.435Z,931.49
2017-04-13T00:13:01.876Z,931.49
2017-04-13T00:13:16.055Z,931.49
2017-04-13T00:13:30.147Z,931.47
2017-04-13T00:13:44.318Z,931.47
2017-04-13T00:13:58.488Z,931.48
2017-04-13T00:14:12.707Z,931.47
2017-04-13T00:14:26.860Z,931.47
2017-04-13T00:14:41.000Z,931.49
2017-04-13T00:15:26.141Z,931.52
2017-04-13T00:15:40.277Z,931.5
2017-04-13T00:16:39.565Z,931.48
2017-04-13T00:16:53.691Z,931.49
2017-04-13T00:17:07.795Z,931.51
2017-04-13T00:17:22.145Z,931.51
2017-04-13T00:17:49.325Z,931.5
2017-04-13T00:18:03.455Z,931.52
2017-04-13T00:18:20.682Z,931.55
2017-04-13T00:18:34.866Z,931.54
2017-04-13T00:18:49.049Z,931.53
2017-04-13T00:19:04.385Z,931.61
2017-04-13T00:19:19.194Z,931.52
2017-04-13T00:19:33.316Z,931.58
2017-04-13T00:20:06.944Z,931.56
2017-04-13T00:20:21.068Z,931.61
2017-04-13T00:21:07.432Z,931.53
2017-04-13T00:21:22.388Z,931.54
2017-04-13T00:21:36.560Z,931.53
2017-04-13T00:21:50.723Z,931.53
2017-04-13T00:22:04.844Z,931.57
2017-04-13T00:22:29.486Z,931.54
2017-04-13T00:22:43.658Z,931.55
2017-04-13T00:22:57.871Z,931.54
2017-04-13T00:24:02.990Z,931.52
2017-04-13T00:24:17.190Z,931.54
2017-04-13T00:24:31.377Z,931.55
2017-04-13T00:24:45.531Z,931.51
2017-04-13T00:25:10.719Z,931.57
2017-04-13T00:25:24.915Z,931.56
2017-04-13T00:25:39.063Z,931.57
2017-04-13T00:25:53.255Z,931.58
2017-04-13T00:26:07.448Z,931.55
2017-04-13T00:26:21.603Z,931.65
2017-04-13T00:26:35.683Z,931.57
2017-04-13T00:26:49.811Z,931.6
2017-04-13T00:27:03.917Z,931.65
2017-04-13T00:27:18.059Z,931.6
2017-04-13T00:27:32.247Z,931.63
2017-04-13T00:27:46.402Z,931.62
2017-04-13T00:28:00.591Z,931.65
2017-04-13T00:28:14.771Z,931.65
2017-04-13T00:28:28.917Z,931.66
2017-04-13T00:28:43.081Z,931.65
2017-04-13T00:28:57.258Z,931.72
2017-04-13T00:29:11.422Z,931.7
2017-04-13T00:29:25.578Z,931.71
2017-04-13T00:29:39.697Z,931.71
2017-04-13T00:29:53.804Z,931.69
2017-04-13T00:30:07.963Z,931.69
2017-04-13T00:30:22.140Z,931.65
2017-04-13T00:30:36.309Z,931.76
2017-04-13T00:30:50.437Z,931.73
2017-04-13T00:31:04.582Z,931.7
2017-04-13T00:31:49.715Z,931.67
2017-04-13T00:32:03.862Z,931.72
2017-04-13T00:32:17.980Z,931.72
2017-04-13T00:32:42.435Z,931.71
2017-04-13T00:32:56.582Z,931.67
2017-04-13T00:33:10.727Z,931.67
2017-04-13T00:33:24.894Z,931.66
2017-04-13T00:34:56.903Z,931.64
2017-04-13T00:35:42.265Z,931.61
2017-04-13T00:35:56.378Z,931.63
2017-04-13T00:36:55.673Z,931.62
2017-04-13T00:37:09.832Z,931.57
2017-04-13T00:37:24.878Z,931.57
2017-04-13T00:37:38.982Z,931.56
2017-04-13T00:37:53.135Z,931.53
2017-04-13T00:38:07.286Z,931.56
2017-04-13T00:38:21.379Z,931.56
2017-04-13T00:38:35.534Z,931.55
2017-04-13T00:38:49.657Z,931.58
2017-04-13T00:39:35.058Z,931.56
2017-04-13T00:39:56.313Z,931.55
2017-04-13T00:40:10.649Z,931.57
2017-04-13T00:40:24.717Z,931.54
2017-04-13T00:40:38.843Z,931.6
2017-04-13T00:41:24.021Z,931.56
2017-04-13T00:41:38.246Z,931.55
2017-04-13T00:42:28.650Z,931.54
2017-04-13T00:42:42.813Z,931.59
2017-04-13T00:42:56.899Z,931.52
2017-04-13T00:43:47.539Z,931.53
2017-04-13T00:44:02.913Z,931.53
2017-04-13T00:44:48.526Z,931.55
2017-04-13T00:45:02.722Z,931.54
2017-04-13T00:45:16.830Z,931.58
2017-04-13T00:45:31.045Z,931.52
2017-04-13T00:46:04.433Z,931.58
2017-04-13T00:46:18.578Z,931.58
2017-04-13T00:46:32.701Z,931.57
2017-04-13T00:46:46.984Z,931.6
2017-04-13T00:47:02.033Z,931.58
2017-04-13T00:47:16.202Z,931.58
2017-04-13T00:47:31.658Z,931.59
2017-04-13T00:47:45.843Z,931.57
2017-04-13T00:48:31.038Z,931.58
2017-04-13T00:48:45.169Z,931.53
2017-04-13T00:48:59.331Z,931.58
2017-04-13T00:49:16.928Z,931.58
2017-04-13T00:49:31.164Z,931.53
2017-04-13T00:50:19.805Z,931.58
2017-04-13T00:50:33.968Z,931.61
2017-04-13T00:50:48.283Z,931.54
2017-04-13T00:51:02.368Z,931.55
2017-04-13T00:51:16.593Z,931.53
2017-04-13T00:51:30.774Z,931.55
2017-04-13T00:51:44.940Z,931.54
2017-04-13T00:51:59.084Z,931.59
2017-04-13T00:52:13.247Z,931.55
2017-04-13T00:52:28.407Z,931.55
2017-04-13T00:52:42.599Z,931.55
2017-04-13T00:53:27.722Z,931.55
2017-04-13T00:53:41.898Z,931.59
2017-04-13T00:53:56.094Z,931.56
2017-04-13T00:54:10.313Z,931.54
2017-04-13T00:54:37.230Z,931.56
2017-04-13T00:54:52.711Z,931.51
2017-04-13T00:55:06.863Z,931.53
2017-04-13T00:55:21.041Z,931.53
2017-04-13T00:55:35.172Z,931.54
2017-04-13T00:55:49.360Z,931.55
2017-04-13T00:56:03.549Z,931.57
2017-04-13T00:56:48.719Z,931.57
2017-04-13T00:57:04.317Z,931.57
2017-04-13T00:57:18.453Z,931.53
2017-04-13T00:57:32.641Z,931.6
2017-04-13T00:57:46.845Z,931.58
2017-04-13T00:58:04.027Z,931.63
2017-04-13T00:58:18.192Z,931.63
2017-04-13T00:58:37.360Z,931.58
2017-04-13T00:58:52.332Z,931.63
2017-04-13T00:59:06.479Z,931.59
2017-04-13T00:59:26.531Z,931.61
2017-04-13T00:59:40.651Z,931.6
2017-04-13T00:59:54.841Z,931.6
2017-04-13T01:00:08.991Z,931.62
2017-04-13T01:00:23.114Z,931.61
2017-04-13T01:00:37.230Z,931.61
2017-04-13T01:00:51.379Z,931.6
2017-04-13T01:01:05.561Z,931.62
2017-04-13T01:01:50.659Z,931.6
2017-04-13T01:02:35.804Z,931.64
2017-04-13T01:02:49.913Z,931.61
2017-04-13T01:03:04.028Z,931.59
2017-04-13T01:03:18.173Z,931.62
2017-04-13T01:03:32.354Z,931.65
2017-04-13T01:03:46.555Z,931.64
2017-04-13T01:04:00.717Z,931.59
2017-04-13T01:04:25.180Z,931.66
2017-04-13T01:04:49.877Z,931.64
2017-04-13T01:05:04.029Z,931.66
2017-04-13T01:05:43.872Z,931.67
2017-04-13T01:05:58.013Z,931.69
2017-04-13T01:06:12.206Z,931.67
2017-04-13T01:06:26.412Z,931.66
2017-04-13T01:06:40.606Z,931.59
2017-04-13T01:06:55.417Z,931.67
2017-04-13T01:07:09.542Z,931.75
2017-04-13T01:07:23.727Z,931.71
2017-04-13T01:07:37.850Z,931.67
2017-04-13T01:07:52.052Z,931.7
2017-04-13T01:08:06.152Z,931.67
2017-04-13T01:08:20.303Z,931.69
2017-04-13T01:08:34.461Z,931.66
2017-04-13T01:08:48.649Z,931.63
2017-04-13T01:09:02.853Z,931.66
2017-04-13T01:09:17.026Z,931.64
2017-04-13T01:09:31.262Z,931.64
2017-04-13T01:09:51.450Z,931.66
2017-04-13T01:10:05.537Z,931.65
2017-04-13T01:10:31.081Z,931.62
2017-04-13T01:10:45.238Z,931.6
2017-04-13T01:11:56.304Z,931.6
2017-04-13T01:12:10.488Z,931.63
2017-04-13T01:12:24.626Z,931.65
2017-04-13T01:12:38.808Z,931.6
2017-04-13T01:12:52.961Z,931.58
2017-04-13T01:13:07.083Z,931.52
2017-04-13T01:13:21.213Z,931.56
2017-04-13T01:13:36.567Z,931.56
2017-04-13T01:13:50.826Z,931.56
2017-04-13T01:14:04.966Z,931.56
2017-04-13T01:14:19.095Z,931.55
2017-04-13T01:14:33.316Z,931.54
2017-04-13T01:14:47.542Z,931.57
2017-04-13T01:15:01.723Z,931.57
2017-04-13T01:15:15.909Z,931.59
2017-04-13T01:15:30.025Z,931.58
2017-04-13T01:15:44.155Z,931.57
2017-04-13T01:16:29.284Z,931.53
2017-04-13T01:17:45.438Z,931.56
2017-04-13T01:17:59.610Z,931.57
2017-04-13T01:18:13.779Z,931.58
2017-04-13T01:18:27.920Z,931.56
2017-04-13T01:18:42.039Z,931.56
2017-04-13T01:18:56.164Z,931.58
2017-04-13T01:19:10.388Z,931.58
2017-04-13T01:19:24.567Z,931.56
2017-04-13T01:19:38.709Z,931.57
2017-04-13T01:19:52.851Z,931.57
2017-04-13T01:20:57.747Z,931.58
2017-04-13T01:21:11.946Z,931.52
2017-04-13T01:21:26.071Z,931.56
2017-04-13T01:21:40.327Z,931.56
2017-04-13T01:21:54.563Z,931.53
2017-04-13T01:22:08.716Z,931.55
2017-04-13T01:22:22.884Z,931.55
2017-04-13T01:22:37.049Z,931.55
2017-04-13T01:22:51.239Z,931.56
2017-04-13T01:23:36.379Z,931.58
2017-04-13T01:23:50.612Z,931.57
2017-04-13T01:24:49.932Z,931.6
2017-04-13T01:25:35.286Z,931.57
2017-04-13T01:25:49.500Z,931.57
2017-04-13T01:26:03.662Z,931.57
2017-04-13T01:26:17.791Z,931.6
2017-04-13T01:27:02.920Z,931.59
2017-04-13T01:27:17.159Z,931.57
2017-04-13T01:27:31.357Z,931.59
2017-04-13T01:29:15.794Z,931.54
2017-04-13T01:29:29.979Z,931.57
2017-04-13T01:29:44.196Z,931.56
2017-04-13T01:29:58.354Z,931.54
2017-04-13T01:30:12.525Z,931.55
2017-04-13T01:30:39.423Z,931.59
2017-04-13T01:31:24.565Z,931.55
2017-04-13T01:31:38.687Z,931.55
2017-04-13T01:31:52.808Z,931.61
2017-04-13T01:32:06.905Z,931.54
2017-04-13T01:32:21.095Z,931.64
2017-04-13T01:32:35.227Z,931.53
2017-04-13T01:32:49.400Z,931.57
2017-04-13T01:33:03.513Z,931.61
2017-04-13T01:33:17.696Z,931.52
2017-04-13T01:33:31.832Z,931.55
2017-04-13T01:33:45.994Z,931.59
2017-04-13T01:35:22.146Z,931.56
2017-04-13T01:36:21.411Z,931.61
2017-04-13T01:37:17.078Z,931.65
2017-04-13T01:37:31.244Z,931.62
2017-04-13T01:37:45.360Z,931.6
2017-04-13T01:37:59.549Z,931.61
2017-04-13T01:38:13.706Z,931.6
2017-04-13T01:38:27.878Z,931.6
2017-04-13T01:38:41.982Z,931.61
2017-04-13T01:38:56.125Z,931.65
2017-04-13T01:39:10.246Z,931.63
2017-04-13T01:39:24.391Z,931.64
2017-04-13T01:39:38.557Z,931.64
2017-04-13T01:39:52.711Z,931.6
2017-04-13T01:40:06.830Z,931.64
2017-04-13T01:40:20.990Z,931.64
2017-04-13T01:40:35.087Z,931.64
2017-04-13T01:40:49.626Z,931.63
2017-04-13T01:41:03.769Z,931.68
2017-04-13T01:41:18.424Z,931.64
2017-04-13T01:41:32.592Z,931.68
2017-04-13T01:41:46.678Z,931.63
2017-04-13T01:42:00.790Z,931.62
2017-04-13T01:42:14.976Z,931.61
2017-04-13T01:42:29.135Z,931.66
2017-04-13T01:42:43.262Z,931.62
2017-04-13T01:42:57.446Z,931.64
2017-04-13T01:43:11.544Z,931.64
2017-04-13T01:43:25.756Z,931.65
2017-04-13T01:43:39.939Z,931.64
2017-04-13T01:43:54.057Z,931.64
2017-04-13T01:44:08.215Z,931.7
2017-04-13T01:44:23.141Z,931.64
2017-04-13T01:44:37.303Z,931.65
2017-04-13T01:44:51.394Z,931.67
2017-04-13T01:45:08.832Z,931.62
2017-04-13T01:45:23.248Z,931.66
2017-04-13T01:45:37.428Z,931.64
2017-04-13T01:45:51.557Z,931.68
2017-04-13T01:46:05.693Z,931.61
2017-04-13T01:47:04.964Z,931.7
2017-04-13T01:48:19.780Z,931.59
2017-04-13T01:48:33.938Z,931.63
2017-04-13T01:48:48.066Z,931.59
2017-04-13T01:49:03.240Z,931.57
2017-04-13T01:49:17.422Z,931.57
2017-04-13T01:49:31.552Z,931.55
2017-04-13T01:49:46.600Z,931.6
2017-04-13T01:50:31.735Z,931.49
2017-04-13T01:50:48.165Z,931.57
2017-04-13T01:51:02.320Z,931.57
2017-04-13T01:51:16.460Z,931.53
2017-04-13T01:51:30.642Z,931.55
2017-04-13T01:51:44.805Z,931.52
2017-04-13T01:51:59.199Z,931.53
2017-04-13T01:52:13.410Z,931.53
2017-04-13T01:52:58.608Z,931.56
2017-04-13T01:53:12.788Z,931.55
2017-04-13T01:53:32.790Z,931.58
2017-04-13T01:53:46.993Z,931.54
2017-04-13T01:54:01.148Z,931.55
2017-04-13T01:54:15.343Z,931.55
2017-04-13T01:54:29.539Z,931.51
2017-04-13T01:55:03.078Z,931.53
2017-04-13T01:55:17.246Z,931.51
2017-04-13T01:55:31.423Z,931.5
2017-04-13T01:55:45.759Z,931.46
2017-04-13T01:55:59.928Z,931.46
2017-04-13T01:56:14.090Z,931.48
2017-04-13T01:56:28.301Z,931.44
2017-04-13T01:56:42.432Z,931.44
2017-04-13T01:56:56.644Z,931.44
2017-04-13T01:57:35.789Z,931.44
2017-04-13T01:58:36.967Z,931.48
2017-04-13T01:58:51.186Z,931.55
2017-04-13T01:59:05.342Z,931.47
2017-04-13T01:59:19.511Z,931.43
2017-04-13T01:59:33.694Z,931.44
2017-04-13T01:59:47.879Z,931.47
2017-04-13T02:00:32.985Z,931.45
2017-04-13T02:00:47.137Z,931.46
2017-04-13T02:01:01.243Z,931.44
2017-04-13T02:01:15.356Z,931.43
2017-04-13T02:01:29.493Z,931.4
2017-04-13T02:01:43.624Z,931.41
2017-04-13T02:01:57.743Z,931.4
2017-04-13T02:02:18.235Z,931.41
2017-04-13T02:02:32.414Z,931.38
2017-04-13T02:02:46.539Z,931.35
2017-04-13T02:03:00.704Z,931.38
2017-04-13T02:03:14.840Z,931.38
2017-04-13T02:03:28.932Z,931.38
2017-04-13T02:03:43.064Z,931.42
2017-04-13T02:03:57.193Z,931.38
2017-04-13T02:04:42.784Z,931.37
2017-04-13T02:04:56.931Z,931.37
2017-04-13T02:05:11.046Z,931.34
2017-04-13T02:05:25.203Z,931.38
2017-04-13T02:05:39.362Z,931.38
2017-04-13T02:05:53.602Z,931.36
2017-04-13T02:06:07.803Z,931.37
2017-04-13T02:06:21.996Z,931.39
2017-04-13T02:07:08.765Z,931.43
2017-04-13T02:07:22.933Z,931.4
2017-04-13T02:07:56.345Z,931.39
2017-04-13T02:08:10.524Z,931.4
2017-04-13T02:08:24.683Z,931.44
2017-04-13T02:08:38.869Z,931.45
2017-04-13T02:08:52.989Z,931.46
2017-04-13T02:09:07.148Z,931.42
2017-04-13T02:09:21.310Z,931.44
2017-04-13T02:09:35.427Z,931.44
2017-04-13T02:09:56.863Z,931.42
2017-04-13T02:10:10.945Z,931.44
2017-04-13T02:10:25.111Z,931.42
2017-04-13T02:10:39.330Z,931.42
2017-04-13T02:11:24.560Z,931.42
2017-04-13T02:11:38.687Z,931.43
2017-04-13T02:12:24.109Z,931.39
2017-04-13T02:12:38.253Z,931.41
2017-04-13T02:12:52.419Z,931.39
2017-04-13T02:13:12.810Z,931.39
2017-04-13T02:13:27.746Z,931.43
2017-04-13T02:13:41.916Z,931.38
2017-04-13T02:13:56.916Z,931.39
2017-04-13T02:14:37.554Z,931.44
2017-04-13T02:14:51.736Z,931.4
2017-04-13T02:15:05.908Z,931.4
2017-04-13T02:15:20.029Z,931.41
2017-04-13T02:15:34.176Z,931.41
2017-04-13T02:15:48.326Z,931.38
2017-04-13T02:16:05.598Z,931.37
2017-04-13T02:16:19.790Z,931.38
2017-04-13T02:17:04.933Z,931.38
2017-04-13T02:17:19.127Z,931.45
2017-04-13T02:17:33.291Z,931.43
2017-04-13T02:17:47.470Z,931.42
2017-04-13T02:18:01.734Z,931.42
2017-04-13T02:18:35.167Z,931.41
2017-04-13T02:18:49.335Z,931.43
2017-04-13T02:19:03.448Z,931.45
2017-04-13T02:19:27.829Z,931.39
2017-04-13T02:20:13.473Z,931.43
2017-04-13T02:20:27.647Z,931.4
2017-04-13T02:20:41.797Z,931.4
2017-04-13T02:20:56.027Z,931.39
2017-04-13T02:21:10.215Z,931.41
2017-04-13T02:21:55.413Z,931.46
2017-04-13T02:22:09.594Z,931.43
2017-04-13T02:22:26.770Z,931.45
2017-04-13T02:22:40.968Z,931.44
2017-04-13T02:22:55.100Z,931.43
2017-04-13T02:23:09.255Z,931.47
2017-04-13T02:23:23.424Z,931.49
2017-04-13T02:23:37.594Z,931.46
2017-04-13T02:23:51.760Z,931.49
2017-04-13T02:24:05.888Z,931.51
2017-04-13T02:24:20.037Z,931.5
2017-04-13T02:24:39.242Z,931.47
2017-04-13T02:24:53.370Z,931.59
2017-04-13T02:25:07.446Z,931.53
2017-04-13T02:25:21.623Z,931.52
2017-04-13T02:25:35.765Z,931.5
2017-04-13T02:25:49.941Z,931.48
2017-04-13T02:26:04.066Z,931.49
2017-04-13T02:26:18.222Z,931.53
2017-04-13T02:26:32.398Z,931.48
2017-04-13T02:26:46.509Z,931.52
2017-04-13T02:27:00.859Z,931.51
2017-04-13T02:27:15.003Z,931.48
2017-04-13T02:27:29.193Z,931.54
2017-04-13T02:27:43.328Z,931.51
2017-04-13T02:27:57.465Z,931.52
2017-04-13T02:28:11.613Z,931.51
2017-04-13T02:28:57.029Z,931.5
2017-04-13T02:29:21.549Z,931.52
2017-04-13T02:30:10.563Z,931.57
2017-04-13T02:30:24.702Z,931.46
2017-04-13T02:30:38.891Z,931.45
2017-04-13T02:30:53.059Z,931.44
2017-04-13T02:31:07.175Z,931.43
2017-04-13T02:31:21.341Z,931.43
2017-04-13T02:32:06.486Z,931.42
2017-04-13T02:32:20.656Z,931.41
2017-04-13T02:32:34.786Z,931.44
2017-04-13T02:32:48.922Z,931.48
2017-04-13T02:33:03.099Z,931.43
2017-04-13T02:33:17.234Z,931.48
2017-04-13T02:33:31.413Z,931.47
2017-04-13T02:33:46.407Z,931.46
2017-04-13T02:34:00.544Z,931.46
2017-04-13T02:34:20.953Z,931.44
2017-04-13T02:34:35.098Z,931.46
2017-04-13T02:34:49.223Z,931.45
2017-04-13T02:35:03.410Z,931.46
2017-04-13T02:35:17.566Z,931.48
2017-04-13T02:36:02.705Z,931.54
2017-04-13T02:36:18.821Z,931.53
2017-04-13T02:37:03.956Z,931.51
2017-04-13T02:37:18.078Z,931.5
2017-04-13T02:37:32.229Z,931.49
2017-04-13T02:37:46.345Z,931.46
2017-04-13T02:38:01.185Z,931.49
2017-04-13T02:38:34.520Z,931.5
2017-04-13T02:39:20.104Z,931.49
2017-04-13T02:39:34.239Z,931.52
2017-04-13T02:39:48.380Z,931.5
2017-04-13T02:40:02.515Z,931.55
2017-04-13T02:40:16.679Z,931.55
2017-04-13T02:40:31.609Z,931.56
2017-04-13T02:40:45.811Z,931.52
2017-04-13T02:40:59.948Z,931.52
2017-04-13T02:41:14.073Z,931.53
2017-04-13T02:41:28.256Z,931.5
2017-04-13T02:41:42.416Z,931.54
2017-04-13T02:41:56.502Z,931.53
2017-04-13T02:42:10.915Z,931.48
2017-04-13T02:42:25.092Z,931.49
2017-04-13T02:42:58.732Z,931.55
2017-04-13T02:43:12.940Z,931.53
2017-04-13T02:43:27.063Z,931.5
2017-04-13T02:43:41.206Z,931.53
2017-04-13T02:43:55.433Z,931.53
2017-04-13T02:44:09.541Z,931.53
2017-04-13T02:44:23.694Z,931.45
2017-04-13T02:44:37.894Z,931.51
2017-04-13T02:44:52.081Z,931.53
2017-04-13T02:45:14.544Z,931.56
2017-04-13T02:45:28.697Z,931.54
2017-04-13T02:45:42.866Z,931.53
2017-04-13T02:45:57.003Z,931.47
2017-04-13T02:46:11.162Z,931.51
2017-04-13T02:46:25.355Z,931.49
2017-04-13T02:46:39.452Z,931.48
2017-04-13T02:46:53.619Z,931.49
2017-04-13T02:47:07.784Z,931.44
2017-04-13T02:47:21.902Z,931.48
2017-04-13T02:47:36.061Z,931.49
2017-04-13T02:47:50.216Z,931.46
2017-04-13T02:48:04.413Z,931.48
2017-04-13T02:48:18.568Z,931.53
2017-04-13T02:48:32.696Z,931.52
2017-04-13T02:48:46.896Z,931.46
2017-04-13T02:49:01.053Z,931.48
2017-04-13T02:49:15.193Z,931.48
2017-04-13T02:49:29.397Z,931.43
2017-04-13T02:49:43.540Z,931.48
2017-04-13T02:49:57.770Z,931.52
2017-04-13T02:50:57.079Z,931.48
2017-04-13T02:51:11.582Z,931.48
2017-04-13T02:51:25.748Z,931.49
2017-04-13T02:51:39.909Z,931.53
2017-04-13T02:51:54.057Z,931.54
2017-04-13T02:52:08.173Z,931.51
2017-04-13T02:52:22.279Z,931.53
2017-04-13T02:52:36.416Z,931.51
2017-04-13T02:52:50.730Z,931.53
2017-04-13T02:53:04.845Z,931.53
2017-04-13T02:53:19.041Z,931.54
2017-04-13T02:53:35.207Z,931.51
2017-04-13T02:53:49.413Z,931.5
2017-04-13T02:54:03.536Z,931.54
2017-04-13T02:54:36.884Z,931.57
2017-04-13T02:54:51.028Z,931.51
2017-04-13T02:55:05.203Z,931.57
2017-04-13T02:55:19.376Z,931.51
2017-04-13T02:55:33.493Z,931.56
2017-04-13T02:55:55.419Z,931.54
2017-04-13T02:56:09.616Z,931.53
2017-04-13T02:56:23.715Z,931.59
2017-04-13T02:56:37.834Z,931.55
2017-04-13T02:56:51.901Z,931.62
2017-04-13T02:57:06.144Z,931.57
2017-04-13T02:57:20.547Z,931.57
2017-04-13T02:57:35.124Z,931.61
2017-04-13T02:58:46.460Z,931.6
2017-04-13T02:59:00.652Z,931.59
2017-04-13T02:59:16.236Z,931.58
2017-04-13T02:59:31.088Z,931.61
2017-04-13T02:59:45.180Z,931.76
2017-04-13T02:59:59.338Z,931.65
2017-04-13T03:00:13.415Z,931.62
2017-04-13T03:00:27.521Z,931.57
2017-04-13T03:00:41.656Z,931.64
2017-04-13T03:00:55.769Z,931.64
2017-04-13T03:01:10.103Z,931.61
2017-04-13T03:01:24.284Z,931.64
2017-04-13T03:01:38.440Z,931.64
2017-04-13T03:01:52.606Z,931.64
2017-04-13T03:02:06.765Z,931.71
2017-04-13T03:02:20.938Z,931.81
2017-04-13T03:02:36.928Z,931.66
2017-04-13T03:02:51.052Z,931.62
2017-04-13T03:03:05.147Z,931.64
2017-04-13T03:03:19.298Z,931.63
2017-04-13T03:03:33.578Z,931.65
2017-04-13T03:03:47.804Z,931.66
2017-04-13T03:04:01.927Z,931.6
2017-04-13T03:04:16.075Z,931.63
2017-04-13T03:04:30.232Z,931.61
2017-04-13T03:04:44.343Z,931.64
2017-04-13T03:04:58.487Z,931.62
2017-04-13T03:05:12.650Z,931.65
2017-04-13T03:05:26.788Z,931.63
2017-04-13T03:05:40.904Z,931.62
2017-04-13T03:05:55.085Z,931.57
2017-04-13T03:06:09.172Z,931.59
2017-04-13T03:06:23.355Z,931.64
2017-04-13T03:06:37.519Z,931.67
2017-04-13T03:06:51.612Z,931.62
2017-04-13T03:07:05.781Z,931.58
2017-04-13T03:07:19.918Z,931.61
2017-04-13T03:07:34.049Z,931.65
2017-04-13T03:07:48.176Z,931.62
2017-04-13T03:08:02.342Z,931.57
2017-04-13T03:08:16.468Z,931.56
2017-04-13T03:08:30.630Z,931.67
2017-04-13T03:08:44.824Z,931.58
2017-04-13T03:08:59.007Z,931.59
2017-04-13T03:09:13.178Z,931.56
2017-04-13T03:09:27.335Z,931.57
2017-04-13T03:09:41.538Z,931.55
2017-04-13T03:09:55.650Z,931.63
2017-04-13T03:10:09.861Z,931.6
2017-04-13T03:10:24.039Z,931.57
2017-04-13T03:10:38.249Z,931.6
2017-04-13T03:10:52.387Z,931.56
2017-04-13T03:11:06.496Z,931.55
2017-04-13T03:11:20.674Z,931.54
2017-04-13T03:11:34.807Z,931.57
2017-04-13T03:11:48.938Z,931.59
2017-04-13T03:12:03.104Z,931.64
2017-04-13T03:12:17.252Z,931.59
2017-04-13T03:12:31.669Z,931.53
2017-04-13T03:12:45.891Z,931.56
2017-04-13T03:13:00.626Z,931.56
2017-04-13T03:13:14.784Z,931.57
2017-04-13T03:13:28.977Z,931.52
2017-04-13T03:13:43.212Z,931.55
2017-04-13T03:13:57.333Z,931.58
2017-04-13T03:14:11.575Z,931.56
2017-04-13T03:14:25.808Z,931.62
2017-04-13T03:14:40.010Z,931.56
2017-04-13T03:14:54.137Z,931.55
2017-04-13T03:15:08.270Z,931.55
2017-04-13T03:15:22.432Z,931.56
2017-04-13T03:15:36.566Z,931.59
2017-04-13T03:15:50.733Z,931.59
2017-04-13T03:16:04.877Z,931.59
2017-04-13T03:16:19.056Z,931.57
2017-04-13T03:16:33.260Z,931.56
2017-04-13T03:16:47.429Z,931.57
2017-04-13T03:17:01.594Z,931.57
2017-04-13T03:17:15.759Z,931.6
2017-04-13T03:17:29.942Z,931.6
2017-04-13T03:17:44.069Z,931.58
2017-04-13T03:17:58.235Z,931.55
2017-04-13T03:18:12.469Z,931.58
2017-04-13T03:18:26.664Z,931.57
2017-04-13T03:18:40.817Z,931.56
2017-04-13T03:18:54.964Z,931.54
2017-04-13T03:19:09.109Z,931.52
2017-04-13T03:19:23.312Z,931.54
2017-04-13T03:19:37.458Z,931.55
2017-04-13T03:19:51.655Z,931.62
2017-04-13T03:20:05.773Z,931.56
2017-04-13T03:20:19.933Z,931.58
2017-04-13T03:20:34.039Z,931.58
2017-04-13T03:20:48.202Z,931.55
2017-04-13T03:21:02.400Z,931.59
2017-04-13T03:21:16.536Z,931.54
2017-04-13T03:21:30.681Z,931.54
2017-04-13T03:21:44.818Z,931.59
2017-04-13T03:21:58.956Z,931.57
2017-04-13T03:22:13.149Z,931.56
2017-04-13T03:22:27.549Z,931.52
2017-04-13T03:22:41.724Z,931.54
2017-04-13T03:22:55.949Z,931.54
2017-04-13T03:23:10.081Z,931.53
2017-04-13T03:23:24.235Z,931.56
2017-04-13T03:23:38.438Z,931.49
2017-04-13T03:23:52.625Z,931.6
2017-04-13T03:24:06.781Z,931.55
2017-04-13T03:24:20.870Z,931.53
2017-04-13T03:24:35.000Z,931.53
2017-04-13T03:24:49.227Z,931.5
2017-04-13T03:25:03.406Z,931.52
2017-04-13T03:25:17.525Z,931.55
2017-04-13T03:25:31.689Z,931.56
2017-04-13T03:25:45.868Z,931.53
2017-04-13T03:26:00.030Z,931.52
2017-04-13T03:26:14.212Z,931.53
2017-04-13T03:26:28.362Z,931.51
2017-04-13T03:26:42.488Z,931.52
2017-04-13T03:26:56.731Z,931.51
2017-04-13T03:27:10.938Z,931.53
2017-04-13T03:27:25.342Z,931.46
2017-04-13T03:27:39.542Z,931.54
2017-04-13T03:27:53.774Z,931.54
2017-04-13T03:28:07.934Z,931.47
2017-04-13T03:28:22.078Z,931.48
2017-04-13T03:28:36.273Z,931.48
2017-04-13T03:28:50.439Z,931.49
2017-04-13T03:29:04.594Z,931.51
2017-04-13T03:29:18.771Z,931.45
2017-04-13T03:29:32.860Z,931.44
2017-04-13T03:29:46.984Z,931.47
2017-04-13T03:30:01.131Z,931.49
2017-04-13T03:30:15.307Z,931.47
2017-04-13T03:30:29.508Z,931.48
2017-04-13T03:30:43.740Z,931.47
2017-04-13T03:30:57.910Z,931.44
2017-04-13T03:31:12.031Z,931.45
2017-04-13T03:31:26.201Z,931.45
2017-04-13T03:31:40.380Z,931.47
2017-04-13T03:31:54.611Z,931.43
2017-04-13T03:32:08.699Z,931.54
2017-04-13T03:32:22.810Z,931.47
2017-04-13T03:32:36.993Z,931.44
2017-04-13T03:32:51.132Z,931.43
2017-04-13T03:33:05.291Z,931.45
2017-04-13T03:33:19.420Z,931.41
2017-04-13T03:33:33.593Z,931.47
2017-04-13T03:33:47.689Z,931.45
2017-04-13T03:34:01.924Z,931.43
2017-04-13T03:34:16.071Z,931.45
2017-04-13T03:34:30.209Z,931.43
2017-04-13T03:34:44.427Z,931.43
2017-04-13T03:34:58.583Z,931.39
2017-04-13T03:35:12.755Z,931.43
2017-04-13T03:35:26.917Z,931.41
2017-04-13T03:35:41.122Z,931.4
2017-04-13T03:35:55.332Z,931.47
2017-04-13T03:36:09.488Z,931.41
2017-04-13T03:36:23.630Z,931.42
2017-04-13T03:36:37.816Z,931.43
2017-04-13T03:36:52.022Z,931.38
2017-04-13T03:37:06.127Z,931.36
2017-04-13T03:37:20.211Z,931.36
2017-04-13T03:37:34.435Z,931.39
2017-04-13T03:37:49.246Z,931.39
2017-04-13T03:38:03.454Z,931.36
2017-04-13T03:38:17.626Z,931.39
2017-04-13T03:38:31.788Z,931.37
2017-04-13T03:38:45.954Z,931.35
2017-04-13T03:39:00.119Z,931.42
2017-04-13T03:39:14.249Z,931.4
2017-04-13T03:39:28.374Z,931.35
2017-04-13T03:39:42.715Z,931.36
2017-04-13T03:39:56.824Z,931.41
2017-04-13T03:40:10.989Z,931.34
2017-04-13T03:40:25.146Z,931.34
2017-04-13T03:40:39.254Z,931.35
2017-04-13T03:40:53.403Z,931.33
2017-04-13T03:41:07.593Z,931.38
2017-04-13T03:41:21.746Z,931.44
2017-04-13T03:41:35.860Z,931.35
2017-04-13T03:41:49.984Z,931.35
2017-04-13T03:42:04.077Z,931.3
2017-04-13T03:42:18.276Z,931.33
2017-04-13T03:42:32.812Z,931.3
2017-04-13T03:42:46.977Z,931.34
2017-04-13T03:43:01.134Z,931.26
2017-04-13T03:43:15.264Z,931.34